Time;durP1;ratioP1;P1;durP2;ratioP2;P2;SDS_P1;SDS_P2;PMS_P1;PMS_P2;Temp;Humidity;BMP_temperature;BMP_pressure;BME280_temperature;BME280_humidity;BME280_pressure;Samples;Min_cycle;Max_cycle;Signal;HPM_P1;HPM_P2
2022/01/16 00:00:22;;;;;;;296.90;199.65;;;-0.10;99.90;;;;;;4992950;28;20061;-70
2022/01/16 00:05:25;;;;;;;311.40;200.55;;;-0.10;99.90;;;;;;4993176;28;20496;-70
2022/01/16 00:07:52;;;;;;;317.70;202.95;;;-0.10;99.90;;;;;;4993221;28;20062;-72
2022/01/16 00:10:18;;;;;;;317.77;200.38;;;-0.10;99.90;;;;;;4975879;28;20117;-69
2022/01/16 00:12:48;;;;;;;327.98;202.05;;;-0.10;99.90;;;;;;4992808;28;20392;-70
2022/01/16 00:15:17;;;;;;;360.90;208.82;;;-0.10;99.90;;;;;;4975661;28;20050;-70
2022/01/16 00:17:54;;;;;;;304.75;191.43;;;-0.10;99.90;;;;;;4993066;28;20050;-71
2022/01/16 00:20:25;;;;;;;307.63;198.20;;;-0.10;99.90;;;;;;4959764;28;20393;-70
2022/01/16 00:22:51;;;;;;;302.80;184.18;;;-0.10;99.90;;;;;;4992697;28;20564;-69
2022/01/16 00:25:18;;;;;;;293.45;187.00;;;-0.10;99.90;;;;;;4992488;28;20398;-70
2022/01/16 00:27:45;;;;;;;286.80;180.93;;;-0.10;99.90;;;;;;4975327;28;20473;-70
2022/01/16 00:30:12;;;;;;;276.45;175.43;;;-0.20;99.90;;;;;;4992718;28;20477;-70
2022/01/16 00:32:38;;;;;;;308.73;189.88;;;-0.20;99.90;;;;;;4992525;28;20034;-69
2022/01/16 00:35:04;;;;;;;294.65;182.75;;;-0.20;99.90;;;;;;4992324;28;20034;-69
2022/01/16 00:37:30;;;;;;;309.65;189.70;;;-0.30;99.90;;;;;;4992546;28;20161;-72
2022/01/16 00:39:56;;;;;;;332.33;207.80;;;-0.30;99.90;;;;;;4991995;28;20105;-69
2022/01/16 00:42:23;;;;;;;355.02;224.27;;;-0.30;99.90;;;;;;4992591;28;20440;-69
2022/01/16 00:44:50;;;;;;;349.67;220.93;;;-0.30;99.90;;;;;;4992388;28;20549;-69
2022/01/16 00:47:17;;;;;;;529.03;354.23;;;-0.30;99.90;;;;;;4991495;28;20029;-70
2022/01/16 00:49:43;;;;;;;507.38;339.35;;;-0.30;99.90;;;;;;4992449;28;20050;-72
2022/01/16 00:52:10;;;;;;;499.02;332.30;;;-0.30;99.90;;;;;;4997531;28;20128;-70
2022/01/16 00:54:37;;;;;;;503.42;345.63;;;-0.20;99.90;;;;;;4998970;28;20038;-70
2022/01/16 00:57:04;;;;;;;545.30;370.00;;;-0.20;99.90;;;;;;4998733;28;20031;-70
2022/01/16 00:59:29;;;;;;;526.15;353.98;;;-0.20;99.90;;;;;;4998284;28;20106;-69
2022/01/16 01:01:55;;;;;;;533.78;358.27;;;-0.20;99.90;;;;;;4998796;28;20113;-69
2022/01/16 01:04:21;;;;;;;560.58;388.20;;;-0.20;99.90;;;;;;4998648;28;20019;-71
2022/01/16 01:06:50;;;;;;;495.08;329.83;;;-0.20;99.90;;;;;;4998898;28;20038;-69
2022/01/16 01:09:16;;;;;;;416.40;258.95;;;-0.20;99.90;;;;;;4998745;28;20057;-70
2022/01/16 01:11:45;;;;;;;435.63;280.52;;;-0.20;99.90;;;;;;4998961;28;20129;-70
2022/01/16 01:14:27;;;;;;;455.13;297.48;;;-0.20;99.90;;;;;;4998559;28;20049;-70
2022/01/16 01:16:56;;;;;;;473.58;320.92;;;-0.20;99.90;;;;;;4998877;28;20046;-70
2022/01/16 01:19:28;;;;;;;477.10;318.58;;;-0.20;99.90;;;;;;4981318;28;20041;-69
2022/01/16 01:21:55;;;;;;;480.13;318.48;;;-0.20;99.90;;;;;;4981492;28;20397;-70
2022/01/16 01:24:23;;;;;;;444.13;285.88;;;-0.20;99.90;;;;;;4998594;28;20381;-69
2022/01/16 01:27:00;;;;;;;466.02;307.40;;;-0.40;99.90;;;;;;4998896;28;20488;-70
2022/01/16 01:29:28;;;;;;;426.73;272.90;;;-0.40;99.90;;;;;;4998449;28;20034;-70
2022/01/16 01:31:55;;;;;;;438.27;274.02;;;-0.40;99.90;;;;;;4981194;28;20382;-70
2022/01/16 01:34:21;;;;;;;409.52;252.23;;;-0.40;99.90;;;;;;4998761;28;20027;-69
2022/01/16 01:36:48;;;;;;;425.92;264.35;;;-0.30;99.90;;;;;;4998535;28;20088;-69
2022/01/16 01:39:16;;;;;;;418.13;267.05;;;-0.40;99.90;;;;;;4998379;28;20424;-70
2022/01/16 01:41:43;;;;;;;430.08;272.20;;;-0.40;99.90;;;;;;4998802;28;20157;-70
2022/01/16 01:52:23;;;;;;;394.17;248.40;;;-0.60;99.90;;;;;;4998509;28;20030;-69
2022/01/16 01:54:49;;;;;;;389.98;243.02;;;-0.70;99.90;;;;;;4998329;28;20027;-69
2022/01/16 01:57:15;;;;;;;367.60;236.55;;;-0.70;99.90;;;;;;4998218;28;20088;-70
2022/01/16 01:59:41;;;;;;;312.70;200.57;;;-0.70;99.90;;;;;;4998290;28;20022;-69
2022/01/16 02:02:08;;;;;;;248.85;159.35;;;-0.70;99.90;;;;;;4997292;28;20038;-69
2022/01/16 02:04:34;;;;;;;295.30;190.43;;;-0.60;99.90;;;;;;4994552;28;20085;-69
2022/01/16 02:07:00;;;;;;;285.30;187.27;;;-0.60;99.90;;;;;;4995274;28;20026;-69
2022/01/16 02:09:27;;;;;;;277.63;173.25;;;-0.70;99.90;;;;;;4995369;28;20027;-70
2022/01/16 02:11:53;;;;;;;236.60;142.05;;;-0.60;99.90;;;;;;4995482;28;20046;-70
2022/01/16 02:14:34;;;;;;;240.98;151.88;;;-0.50;99.90;;;;;;4995298;28;20069;-70
2022/01/16 02:28:18;;;;;;;121.77;78.77;;;-0.40;99.90;;;;;;4995197;28;20445;-70
2022/01/16 02:31:21;;;;;;;130.95;84.53;;;-0.50;99.90;;;;;;4994670;28;20280;-71
2022/01/16 02:36:31;;;;;;;117.28;75.60;;;-0.50;99.90;;;;;;4994837;28;20117;-70
2022/01/16 02:39:07;;;;;;;154.05;95.97;;;-0.60;99.90;;;;;;4994677;28;20022;-71
2022/01/16 02:41:34;;;;;;;173.25;106.85;;;-0.70;99.90;;;;;;4995004;28;20034;-70
2022/01/16 02:44:02;;;;;;;218.50;135.45;;;-0.60;99.90;;;;;;4994670;28;20022;-70
2022/01/16 02:48:54;;;;;;;163.98;107.90;;;-0.70;99.90;;;;;;4994678;28;20026;-70
2022/01/16 02:51:26;;;;;;;113.40;74.65;;;-0.70;99.90;;;;;;4993686;28;20041;-70
2022/01/16 02:53:54;;;;;;;178.75;104.90;;;-0.70;99.90;;;;;;4991589;28;20125;-71
2022/01/16 02:56:20;;;;;;;128.50;83.25;;;-0.70;99.90;;;;;;4994432;28;20548;-71
2022/01/16 02:58:48;;;;;;;122.80;80.28;;;-0.70;99.90;;;;;;4994065;28;20057;-71
2022/01/16 03:01:15;;;;;;;166.38;107.07;;;-0.70;99.90;;;;;;4994293;28;20049;-72
2022/01/16 03:03:42;;;;;;;110.93;70.53;;;-0.70;99.90;;;;;;4994484;28;20033;-71
2022/01/16 03:06:08;;;;;;;104.30;72.78;;;-0.70;99.90;;;;;;4976903;28;20129;-72
2022/01/16 03:08:34;;;;;;;102.80;66.18;;;-0.70;99.90;;;;;;4993766;28;20525;-71
2022/01/16 03:11:16;;;;;;;89.28;59.50;;;-0.70;99.90;;;;;;4994059;28;20385;-71
2022/01/16 03:13:47;;;;;;;81.90;57.10;;;-0.70;99.90;;;;;;4994151;28;20033;-72
2022/01/16 03:16:15;;;;;;;83.32;56.00;;;-0.70;99.90;;;;;;4993926;28;20081;-71
2022/01/16 03:24:10;;;;;;;115.38;70.57;;;-0.70;99.90;;;;;;4993924;28;20121;-71
2022/01/16 03:26:36;;;;;;;93.45;62.95;;;-0.70;99.90;;;;;;4993754;28;20108;-71
2022/01/16 03:29:03;;;;;;;92.53;59.00;;;-0.60;99.90;;;;;;4993644;28;20076;-71
2022/01/16 03:31:29;;;;;;;84.70;54.75;;;-0.70;99.90;;;;;;4976490;28;20425;-71
2022/01/16 03:33:55;;;;;;;81.00;52.55;;;-0.60;99.90;;;;;;4993983;28;20034;-71
2022/01/16 03:36:22;;;;;;;70.30;47.67;;;-0.60;99.90;;;;;;4993378;28;20034;-72
2022/01/16 03:38:48;;;;;;;67.60;48.17;;;-0.60;99.90;;;;;;4993484;28;20543;-70
2022/01/16 03:41:14;;;;;;;74.60;47.58;;;-0.60;99.90;;;;;;4992440;28;20453;-70
2022/01/16 03:43:40;;;;;;;75.00;49.08;;;-0.60;99.90;;;;;;4993735;28;20033;-72
2022/01/16 03:46:07;;;;;;;73.47;50.50;;;-0.60;99.90;;;;;;4993244;28;20065;-71
2022/01/16 03:48:33;;;;;;;78.07;53.45;;;-0.60;99.90;;;;;;4993419;28;20029;-72
2022/01/16 03:50:59;;;;;;;80.93;54.28;;;-0.60;99.90;;;;;;4993621;28;20022;-71
2022/01/16 03:53:25;;;;;;;79.38;51.30;;;-0.60;99.90;;;;;;4993411;28;20092;-72
2022/01/16 03:55:53;;;;;;;68.22;48.50;;;-0.60;99.90;;;;;;4993072;28;20031;-70
2022/01/16 03:58:19;;;;;;;69.45;48.15;;;-0.60;99.90;;;;;;4991917;28;20176;-71
2022/01/16 04:00:45;;;;;;;66.75;47.97;;;-0.60;99.90;;;;;;4993357;28;20073;-71
2022/01/16 04:03:12;;;;;;;67.90;48.00;;;-0.60;99.90;;;;;;4992913;28;20037;-71
2022/01/16 04:05:38;;;;;;;76.95;54.15;;;-0.60;99.90;;;;;;4993039;28;20095;-72
2022/01/16 04:08:04;;;;;;;72.22;48.55;;;-0.60;99.90;;;;;;4992853;28;20039;-72
2022/01/16 04:10:30;;;;;;;76.70;48.45;;;-0.60;99.90;;;;;;4992765;28;20518;-71
2022/01/16 04:12:56;;;;;;;69.15;47.75;;;-0.70;99.90;;;;;;4993135;28;20109;-71
2022/01/16 04:15:31;;;;;;;69.20;47.17;;;-0.70;99.90;;;;;;4992906;28;20030;-71
2022/01/16 04:17:58;;;;;;;69.93;48.17;;;-0.70;99.90;;;;;;4993159;28;20034;-71
2022/01/16 04:20:24;;;;;;;66.00;43.88;;;-0.70;99.90;;;;;;4975292;28;20030;-72
2022/01/16 04:22:50;;;;;;;64.43;46.20;;;-0.70;99.90;;;;;;4975350;28;20101;-72
2022/01/16 04:25:18;;;;;;;80.53;53.30;;;-0.70;99.90;;;;;;4992438;28;20556;-71
2022/01/16 04:27:44;;;;;;;95.75;64.03;;;-0.70;99.90;;;;;;4992417;28;20030;-71
2022/01/16 04:30:11;;;;;;;116.68;80.28;;;-0.70;99.90;;;;;;4992328;28;20088;-73
2022/01/16 04:32:37;;;;;;;105.85;71.05;;;-0.70;99.90;;;;;;4992856;28;20027;-73
2022/01/16 04:35:05;;;;;;;95.55;64.70;;;-0.70;99.90;;;;;;4975449;28;20046;-72
2022/01/16 04:37:31;;;;;;;92.68;61.20;;;-0.70;99.90;;;;;;4991942;28;20031;-73
2022/01/16 04:40:00;;;;;;;68.82;49.35;;;-0.80;99.90;;;;;;4992566;28;20098;-72
2022/01/16 04:45:12;;;;;;;68.32;49.83;;;-0.80;99.90;;;;;;4992485;28;20034;-73
2022/01/16 04:47:38;;;;;;;66.40;45.42;;;-0.90;99.90;;;;;;4992057;28;20125;-72
2022/01/16 04:50:05;;;;;;;66.47;45.85;;;-0.90;99.90;;;;;;4992643;28;20034;-73
2022/01/16 04:52:32;;;;;;;69.88;48.65;;;-1.00;99.90;;;;;;4992517;28;20049;-72
2022/01/16 04:54:58;;;;;;;74.95;52.28;;;-0.90;99.90;;;;;;4992310;28;20042;-72
2022/01/16 04:57:23;;;;;;;75.07;51.90;;;-0.90;99.90;;;;;;4992272;28;20737;-70
2022/01/16 04:59:49;;;;;;;82.22;55.70;;;-0.90;99.90;;;;;;4991939;28;20528;-72
2022/01/16 05:02:15;;;;;;;82.25;56.47;;;-1.00;99.90;;;;;;4992243;28;20068;-72
2022/01/16 05:04:41;;;;;;;159.60;58.60;;;-1.00;99.90;;;;;;4992255;28;20035;-73
2022/01/16 05:07:07;;;;;;;269.58;62.22;;;-0.90;99.90;;;;;;4991777;28;20026;-71
2022/01/16 05:09:33;;;;;;;295.40;72.10;;;-0.90;99.90;;;;;;4992017;28;20038;-72
2022/01/16 05:12:02;;;;;;;343.73;70.95;;;-0.90;99.90;;;;;;4992132;28;20045;-71
2022/01/16 05:17:12;;;;;;;236.38;61.72;;;-0.90;99.90;;;;;;4990823;28;20034;-72
2022/01/16 05:19:38;;;;;;;175.77;57.85;;;-1.00;99.90;;;;;;4991978;28;20370;-71
2022/01/16 05:22:06;;;;;;;127.20;56.45;;;-1.00;99.90;;;;;;4974425;28;20474;-72
2022/01/16 05:24:34;;;;;;;280.08;75.00;;;-1.00;99.90;;;;;;4990930;28;20591;-71
2022/01/16 05:27:00;;;;;;;171.20;54.47;;;-1.00;99.90;;;;;;4991946;28;20048;-71
2022/01/16 05:29:26;;;;;;;137.85;54.97;;;-1.00;99.90;;;;;;4992035;28;20038;-72
2022/01/16 05:31:52;;;;;;;177.02;62.85;;;-1.00;99.90;;;;;;4992206;28;20456;-71
2022/01/16 05:34:18;;;;;;;205.80;73.20;;;-1.10;99.90;;;;;;4991850;28;20109;-72
2022/01/16 05:36:46;;;;;;;178.20;62.10;;;-1.10;99.90;;;;;;4992058;28;20035;-73
2022/01/16 05:39:12;;;;;;;107.20;57.40;;;-1.20;99.90;;;;;;4995877;28;20093;-72
2022/01/16 05:41:38;;;;;;;141.30;64.13;;;-1.20;99.90;;;;;;4995661;28;20483;-69
2022/01/16 05:44:04;;;;;;;175.55;65.40;;;-1.20;99.90;;;;;;4995676;28;20029;-71
2022/01/16 05:46:31;;;;;;;204.85;75.80;;;-1.20;99.90;;;;;;4995674;28;20026;-72
2022/01/16 05:48:57;;;;;;;130.63;59.83;;;-1.20;99.90;;;;;;4995265;28;20033;-71
2022/01/16 05:51:23;;;;;;;158.50;61.00;;;-1.30;99.90;;;;;;4995540;28;20023;-71
2022/01/16 05:53:51;;;;;;;98.55;57.60;;;-1.30;99.90;;;;;;4995746;28;20030;-72
2022/01/16 05:56:17;;;;;;;110.90;69.40;;;-1.30;99.90;;;;;;4995351;28;20042;-71
2022/01/16 05:58:43;;;;;;;94.10;61.58;;;-1.30;99.90;;;;;;4995071;28;20057;-72
2022/01/16 06:01:09;;;;;;;112.10;68.00;;;-1.30;99.90;;;;;;4995161;28;20042;-72
2022/01/16 06:03:36;;;;;;;122.90;71.32;;;-1.30;99.90;;;;;;4995314;28;20097;-71
2022/01/16 06:06:02;;;;;;;147.10;97.18;;;-1.40;99.90;;;;;;4995245;28;20077;-72
2022/01/16 06:08:28;;;;;;;121.75;77.82;;;-1.40;99.90;;;;;;4995255;28;20022;-72
2022/01/16 06:10:54;;;;;;;131.70;90.78;;;-1.40;99.90;;;;;;4995263;28;20038;-70
2022/01/16 06:13:21;;;;;;;86.20;58.45;;;-1.40;99.90;;;;;;4994985;28;20072;-72
2022/01/16 06:15:47;;;;;;;175.50;109.22;;;-1.40;99.90;;;;;;4994335;28;20065;-72
2022/01/16 06:18:14;;;;;;;246.60;155.75;;;-1.30;99.90;;;;;;4977964;28;20113;-72
2022/01/16 06:20:41;;;;;;;173.85;111.35;;;-1.20;99.90;;;;;;4995055;28;20038;-70
2022/01/16 06:23:08;;;;;;;112.50;72.95;;;-1.20;99.90;;;;;;4994935;28;20046;-72
2022/01/16 06:25:34;;;;;;;110.60;72.47;;;-1.20;99.90;;;;;;4995017;28;20022;-72
2022/01/16 06:28:00;;;;;;;109.10;70.47;;;-1.10;99.90;;;;;;4993992;28;20355;-71
2022/01/16 06:30:25;;;;;;;105.03;69.22;;;-1.10;99.90;;;;;;4994663;28;20027;-71
2022/01/16 06:32:51;;;;;;;106.18;67.35;;;-1.10;99.90;;;;;;4995021;28;20034;-72
2022/01/16 06:35:17;;;;;;;115.97;73.63;;;-1.10;99.90;;;;;;4994881;28;20539;-73
2022/01/16 06:37:44;;;;;;;103.20;69.15;;;-1.00;99.90;;;;;;4994801;28;20081;-72
2022/01/16 06:40:12;;;;;;;97.40;63.80;;;-1.00;99.90;;;;;;4994975;28;20033;-72
2022/01/16 06:42:38;;;;;;;99.82;66.00;;;-1.00;99.90;;;;;;4994790;28;20026;-72
2022/01/16 06:45:08;;;;;;;106.63;70.55;;;-0.90;99.90;;;;;;4994080;28;20484;-72
2022/01/16 06:47:34;;;;;;;102.47;66.25;;;-0.90;99.90;;;;;;4994538;28;20022;-73
2022/01/16 06:50:01;;;;;;;98.18;67.85;;;-0.90;99.90;;;;;;4976492;28;20030;-71
2022/01/16 06:52:27;;;;;;;108.95;73.07;;;-0.90;99.90;;;;;;4977003;28;20034;-72
2022/01/16 06:54:53;;;;;;;268.58;147.93;;;-0.90;99.90;;;;;;4994406;28;20112;-73
2022/01/16 06:57:19;;;;;;;292.35;149.70;;;-0.90;99.90;;;;;;4994132;28;20401;-71
2022/01/16 06:59:47;;;;;;;195.85;117.38;;;-0.70;99.90;;;;;;4993979;28;20046;-71
2022/01/16 07:02:16;;;;;;;168.43;107.72;;;-0.60;99.90;;;;;;4994392;28;20500;-72
2022/01/16 07:04:44;;;;;;;137.65;85.40;;;-0.50;99.90;;;;;;4994122;28;20022;-70
2022/01/16 07:07:11;;;;;;;138.65;83.88;;;-0.30;99.90;;;;;;4993930;28;20026;-70
2022/01/16 07:09:39;;;;;;;147.13;86.28;;;-0.30;99.90;;;;;;4976724;28;20416;-71
2022/01/16 07:12:06;;;;;;;140.82;94.85;;;-0.30;99.90;;;;;;4993714;28;20038;-71
2022/01/16 07:14:32;;;;;;;145.98;99.32;;;-0.20;99.90;;;;;;4993964;28;20413;-70
2022/01/16 07:16:58;;;;;;;127.47;82.82;;;-0.10;99.90;;;;;;4993930;28;20092;-70
2022/01/16 07:19:24;;;;;;;100.40;69.18;;;0.00;99.90;;;;;;4991866;28;20053;-70
2022/01/16 07:21:50;;;;;;;100.93;71.88;;;0.00;99.90;;;;;;4993616;28;20066;-71
2022/01/16 07:24:16;;;;;;;204.02;142.55;;;0.00;99.90;;;;;;4993811;28;20492;-71
2022/01/16 07:26:45;;;;;;;129.82;82.47;;;0.00;99.90;;;;;;4993710;28;20594;-70
2022/01/16 07:29:11;;;;;;;114.18;80.03;;;-0.20;99.90;;;;;;4975812;28;20034;-69
2022/01/16 07:31:38;;;;;;;140.88;96.72;;;-0.20;99.90;;;;;;4993527;28;20045;-70
2022/01/16 07:34:09;;;;;;;115.68;76.35;;;-0.10;99.90;;;;;;4993854;28;20021;-71
2022/01/16 07:36:35;;;;;;;129.88;83.22;;;0.00;99.90;;;;;;4992364;28;20041;-70
2022/01/16 07:39:01;;;;;;;135.20;87.85;;;0.10;99.90;;;;;;4992941;28;20019;-70
2022/01/16 07:41:27;;;;;;;128.00;82.70;;;0.30;99.90;;;;;;4992877;28;20041;-70
2022/01/16 07:43:53;;;;;;;122.72;77.35;;;0.40;99.90;;;;;;4993403;28;20022;-70
2022/01/16 07:46:20;;;;;;;120.47;86.03;;;0.60;99.90;;;;;;4993387;28;20031;-70
2022/01/16 07:48:46;;;;;;;142.85;105.50;;;0.70;99.90;;;;;;4975679;28;20030;-70
2022/01/16 07:51:12;;;;;;;147.05;99.38;;;0.70;99.90;;;;;;4992575;28;20432;-70
2022/01/16 07:53:39;;;;;;;146.13;102.05;;;0.80;99.90;;;;;;4988580;28;20022;-70
2022/01/16 07:56:04;;;;;;;115.75;83.07;;;0.90;99.90;;;;;;4992339;28;20026;-71
2022/01/16 07:58:31;;;;;;;135.57;87.32;;;0.90;99.90;;;;;;4992404;28;20370;-71
2022/01/16 08:00:57;;;;;;;126.70;87.07;;;0.90;99.90;;;;;;4991003;28;20499;-71
2022/01/16 08:03:23;;;;;;;148.05;90.00;;;0.90;99.90;;;;;;4991795;28;20023;-70
2022/01/16 08:05:49;;;;;;;116.25;72.72;;;1.00;99.90;;;;;;4974259;28;20049;-70
2022/01/16 08:08:15;;;;;;;88.28;56.50;;;1.10;99.90;;;;;;4976439;28;20495;-71
2022/01/16 08:10:41;;;;;;;85.55;58.08;;;1.00;99.90;;;;;;4999029;28;20030;-71
2022/01/16 08:13:12;;;;;;;74.15;49.10;;;1.10;99.90;;;;;;4970366;28;20023;-71
2022/01/16 08:15:38;;;;;;;86.43;56.92;;;1.10;99.90;;;;;;4987076;28;20042;-70
2022/01/16 08:18:05;;;;;;;85.65;59.30;;;1.00;99.90;;;;;;4992998;28;20027;-71
2022/01/16 08:20:30;;;;;;;97.57;64.80;;;1.10;99.90;;;;;;4992372;28;20055;-70
2022/01/16 08:22:56;;;;;;;81.70;57.65;;;1.30;99.90;;;;;;4986631;28;20037;-70
2022/01/16 08:25:23;;;;;;;101.28;63.33;;;1.40;99.90;;;;;;4983504;28;20377;-70
2022/01/16 08:27:49;;;;;;;95.22;61.42;;;1.50;99.90;;;;;;4988764;28;20096;-71
2022/01/16 08:30:16;;;;;;;78.80;53.13;;;1.70;99.90;;;;;;4990805;28;20019;-70
2022/01/16 08:32:43;;;;;;;85.78;54.80;;;1.80;99.90;;;;;;4974281;28;20030;-70
2022/01/16 08:35:11;;;;;;;75.65;48.78;;;1.80;99.90;;;;;;4991794;28;20038;-70
2022/01/16 08:37:37;;;;;;;83.75;51.05;;;1.90;99.90;;;;;;4991062;28;20021;-71
2022/01/16 08:40:05;;;;;;;77.85;52.83;;;2.00;99.90;;;;;;4990371;28;20089;-70
2022/01/16 08:42:31;;;;;;;86.72;53.85;;;2.00;99.90;;;;;;4991684;28;20018;-71
2022/01/16 08:44:57;;;;;;;78.90;55.03;;;2.10;99.90;;;;;;4991715;28;20057;-71
2022/01/16 08:47:22;;;;;;;86.68;57.97;;;2.30;99.90;;;;;;4991584;28;20026;-72
2022/01/16 08:49:49;;;;;;;88.93;58.60;;;2.40;99.90;;;;;;4990732;28;20035;-71
2022/01/16 08:52:17;;;;;;;88.60;61.97;;;2.50;99.90;;;;;;4983441;28;20033;-72
2022/01/16 08:54:43;;;;;;;103.97;69.07;;;2.70;99.90;;;;;;4991470;28;20034;-71
2022/01/16 08:57:09;;;;;;;99.15;65.85;;;2.70;99.90;;;;;;4990900;28;20038;-71
2022/01/16 08:59:35;;;;;;;109.28;72.10;;;2.80;99.90;;;;;;4992247;28;20030;-72
2022/01/16 09:02:01;;;;;;;99.68;72.65;;;3.00;99.90;;;;;;4991840;28;20384;-72
2022/01/16 09:04:27;;;;;;;108.28;71.75;;;3.10;99.90;;;;;;4992541;28;20492;-71
2022/01/16 09:06:53;;;;;;;112.50;73.15;;;3.10;99.90;;;;;;4992404;28;20019;-71
2022/01/16 09:09:19;;;;;;;117.63;76.03;;;3.20;99.90;;;;;;4991390;28;20033;-72
2022/01/16 09:11:45;;;;;;;124.97;83.35;;;3.40;99.90;;;;;;4991986;28;20109;-71
2022/01/16 09:14:11;;;;;;;120.68;80.57;;;3.40;99.90;;;;;;4995818;28;20137;-72
2022/01/16 09:16:37;;;;;;;137.20;89.45;;;3.60;99.90;;;;;;4995988;28;20088;-71
2022/01/16 09:19:03;;;;;;;139.02;89.43;;;3.40;99.90;;;;;;4988112;28;20109;-72
2022/01/16 09:21:29;;;;;;;125.78;79.60;;;3.70;99.90;;;;;;4987134;28;20101;-72
2022/01/16 09:23:55;;;;;;;110.18;71.05;;;3.70;99.90;;;;;;4995022;28;20105;-71
2022/01/16 09:26:21;;;;;;;93.50;61.67;;;3.70;99.90;;;;;;4994592;28;20077;-71
2022/01/16 09:28:47;;;;;;;98.72;58.90;;;3.80;99.90;;;;;;4991825;28;20018;-73
2022/01/16 09:31:14;;;;;;;94.20;59.33;;;3.70;99.90;;;;;;4992014;28;20516;-71
2022/01/16 09:33:40;;;;;;;86.05;58.83;;;3.90;99.90;;;;;;4994559;28;20499;-72
2022/01/16 09:36:08;;;;;;;75.07;48.13;;;3.90;99.90;;;;;;4995049;28;20034;-72
2022/01/16 09:38:36;;;;;;;74.07;45.53;;;3.80;99.90;;;;;;4994936;28;20105;-72
2022/01/16 09:41:04;;;;;;;60.20;39.25;;;4.00;99.90;;;;;;4994835;28;20022;-71
2022/01/16 09:43:32;;;;;;;57.92;40.00;;;4.00;99.90;;;;;;4995000;28;20030;-70
2022/01/16 09:45:59;;;;;;;47.92;33.03;;;4.20;99.90;;;;;;4995289;28;20101;-72
2022/01/16 09:48:25;;;;;;;61.28;41.33;;;4.10;99.90;;;;;;4995395;28;20481;-71
2022/01/16 09:50:51;;;;;;;52.63;36.55;;;4.00;99.90;;;;;;4993494;28;20018;-72
2022/01/16 09:53:18;;;;;;;50.97;33.17;;;4.30;99.90;;;;;;4990004;28;20022;-71
2022/01/16 09:55:44;;;;;;;43.80;29.17;;;4.10;99.90;;;;;;4973108;28;20130;-71
2022/01/16 09:58:10;;;;;;;51.20;31.52;;;4.20;99.90;;;;;;4994411;28;20042;-69
2022/01/16 10:00:36;;;;;;;49.78;34.72;;;4.30;99.90;;;;;;4994423;28;20133;-69
2022/01/16 10:03:03;;;;;;;46.80;32.00;;;4.40;99.90;;;;;;4994502;28;20116;-72
2022/01/16 10:05:39;;;;;;;49.35;34.17;;;4.60;99.90;;;;;;4991200;28;20027;-71
2022/01/16 10:08:12;;;;;;;47.78;31.88;;;4.60;99.90;;;;;;4993184;28;20050;-71
2022/01/16 10:10:41;;;;;;;48.10;33.03;;;4.70;99.90;;;;;;4993781;28;20085;-71
2022/01/16 10:13:32;;;;;;;54.42;39.08;;;4.90;99.90;;;;;;4986241;28;20052;-71
2022/01/16 10:15:59;;;;;;;68.78;46.78;;;5.00;99.90;;;;;;4987176;28;20385;-71
2022/01/16 10:18:51;;;;;;;73.18;47.33;;;5.10;99.90;;;;;;4993075;28;20068;-71
2022/01/16 10:21:38;;;;;;;87.35;57.72;;;5.20;99.90;;;;;;4991180;28;20081;-71
2022/01/16 10:24:21;;;;;;;93.30;57.17;;;5.30;99.90;;;;;;4991334;28;20054;-71
2022/01/16 10:27:09;;;;;;;81.75;52.05;;;5.30;99.90;;;;;;4994076;28;20037;-71
2022/01/16 10:29:36;;;;;;;88.43;55.67;;;5.40;99.90;;;;;;4993514;28;20057;-70
2022/01/16 10:32:18;;;;;;;84.57;52.33;;;5.40;99.90;;;;;;4993894;28;20145;-71
2022/01/16 10:34:46;;;;;;;87.28;56.67;;;5.60;99.90;;;;;;4992637;28;20022;-71
2022/01/16 10:37:21;;;;;;;81.75;55.70;;;5.70;99.90;;;;;;4993702;28;20058;-71
2022/01/16 10:39:56;;;;;;;91.70;54.67;;;5.80;99.90;;;;;;4993821;28;20121;-71
2022/01/16 10:42:23;;;;;;;85.05;53.22;;;5.90;99.90;;;;;;4976127;28;20062;-71
2022/01/16 10:44:57;;;;;;;91.30;53.22;;;5.90;99.90;;;;;;4993425;28;20023;-70
2022/01/16 10:47:32;;;;;;;63.33;40.05;;;5.90;99.90;;;;;;4993484;28;20465;-70
2022/01/16 10:50:09;;;;;;;92.35;52.90;;;6.00;99.90;;;;;;4993852;28;20027;-70
2022/01/16 10:52:51;;;;;;;66.72;44.17;;;6.00;99.90;;;;;;4975355;28;20037;-71
2022/01/16 10:55:19;;;;;;;86.18;48.72;;;6.00;99.90;;;;;;4972903;28;20054;-71
2022/01/16 10:57:46;;;;;;;58.63;37.38;;;6.10;99.90;;;;;;4994063;28;20197;-70
2022/01/16 11:00:12;;;;;;;60.95;42.15;;;6.10;99.90;;;;;;4993843;28;20026;-70
2022/01/16 11:02:41;;;;;;;62.00;43.13;;;6.20;99.90;;;;;;4993983;28;20701;-70
2022/01/16 11:05:12;;;;;;;54.30;31.63;;;6.30;99.90;;;;;;4993742;28;20030;-70
2022/01/16 11:07:39;;;;;;;42.97;27.30;;;6.30;99.90;;;;;;4993369;28;20465;-70
2022/01/16 11:10:29;;;;;;;53.70;34.08;;;6.30;99.90;;;;;;4993697;28;20050;-70
2022/01/16 11:13:05;;;;;;;30.70;19.40;;;6.40;99.90;;;;;;4976110;28;20038;-71
2022/01/16 11:15:32;;;;;;;30.20;18.80;;;6.40;99.90;;;;;;4992939;28;20057;-71
2022/01/16 11:17:59;;;;;;;47.65;32.72;;;6.50;99.90;;;;;;4993341;28;20677;-72
2022/01/16 11:20:29;;;;;;;29.40;21.10;;;6.60;99.90;;;;;;4992942;28;20496;-71
2022/01/16 11:23:02;;;;;;;29.38;18.45;;;6.60;99.90;;;;;;4992830;28;20066;-71
2022/01/16 11:25:38;;;;;;;34.22;21.40;;;6.60;99.90;;;;;;4993153;28;20117;-72
2022/01/16 11:28:18;;;;;;;31.77;18.80;;;6.70;99.90;;;;;;4993641;28;20473;-71
2022/01/16 11:30:58;;;;;;;30.85;18.33;;;6.80;99.90;;;;;;4992847;28;20042;-71
2022/01/16 11:33:27;;;;;;;25.02;15.77;;;6.80;99.90;;;;;;4960088;28;20129;-71
2022/01/16 11:36:15;;;;;;;32.15;17.15;;;6.80;99.90;;;;;;4993556;28;20026;-71
2022/01/16 11:38:45;;;;;;;32.45;18.65;;;6.80;99.90;;;;;;4993554;28;20027;-71
2022/01/16 11:41:19;;;;;;;27.52;16.88;;;6.90;99.90;;;;;;4993636;28;20080;-70
2022/01/16 11:43:53;;;;;;;35.90;19.55;;;6.90;99.90;;;;;;4993311;28;20112;-70
2022/01/16 11:46:27;;;;;;;33.53;20.83;;;6.90;99.60;;;;;;4993680;28;20049;-69
2022/01/16 11:48:59;;;;;;;29.77;17.27;;;7.00;99.90;;;;;;4993109;28;20030;-72
2022/01/16 11:51:39;;;;;;;24.08;15.43;;;7.00;99.00;;;;;;4993318;28;20120;-71
2022/01/16 11:54:11;;;;;;;25.27;15.10;;;6.90;98.50;;;;;;4993088;28;20066;-71
2022/01/16 11:56:39;;;;;;;31.40;19.90;;;7.00;98.10;;;;;;4993232;28;20037;-71
2022/01/16 11:59:21;;;;;;;27.75;15.48;;;6.90;99.70;;;;;;4993014;28;20078;-71
2022/01/16 12:02:09;;;;;;;25.92;15.35;;;7.00;99.10;;;;;;4992799;28;20493;-71
2022/01/16 12:04:36;;;;;;;26.15;14.85;;;7.00;99.40;;;;;;4991742;28;20109;-71
2022/01/16 12:07:20;;;;;;;24.27;15.50;;;7.00;97.80;;;;;;4974307;28;20031;-71
2022/01/16 12:09:49;;;;;;;25.08;15.07;;;7.00;97.20;;;;;;4991638;28;20548;-71
2022/01/16 12:12:15;;;;;;;24.00;13.70;;;7.00;98.60;;;;;;4959138;28;20030;-71
2022/01/16 12:14:57;;;;;;;21.33;13.60;;;7.10;97.40;;;;;;4991890;28;20030;-71
2022/01/16 12:17:49;;;;;;;26.52;12.95;;;7.10;96.40;;;;;;4975843;28;20050;-71
2022/01/16 12:20:18;;;;;;;23.80;14.13;;;7.10;95.40;;;;;;4992468;28;20026;-70
2022/01/16 12:22:53;;;;;;;21.83;14.50;;;7.20;96.50;;;;;;4974640;28;20586;-71
2022/01/16 12:25:27;;;;;;;31.40;15.07;;;7.20;95.50;;;;;;4991306;28;20054;-71
2022/01/16 12:28:14;;;;;;;26.10;14.90;;;7.20;95.20;;;;;;4957480;28;20370;-71
2022/01/16 12:31:02;;;;;;;28.70;16.33;;;7.20;94.80;;;;;;4987188;28;20026;-70
2022/01/16 12:33:39;;;;;;;29.13;14.07;;;7.20;95.60;;;;;;4990402;28;20027;-70
2022/01/16 12:36:11;;;;;;;20.15;11.93;;;7.20;94.40;;;;;;4958810;28;20037;-70
2022/01/16 12:38:41;;;;;;;23.75;13.32;;;7.10;94.20;;;;;;4992161;28;20030;-71
2022/01/16 12:41:22;;;;;;;20.58;11.13;;;7.20;94.90;;;;;;4992029;28;20034;-71
2022/01/16 12:44:01;;;;;;;26.65;15.20;;;7.10;93.90;;;;;;4991581;28;20177;-71
2022/01/16 12:46:44;;;;;;;28.45;14.02;;;7.10;94.20;;;;;;4992094;28;20061;-70
2022/01/16 12:49:15;;;;;;;;;;;7.10;93.90;;;;;;4991653;28;20026;-70
2022/01/16 12:51:43;;;;;;;24.77;12.52;;;7.10;92.40;;;;;;4991287;28;19956;-71
2022/01/16 12:54:19;;;;;;;17.13;10.80;;;7.00;92.70;;;;;;4992113;28;20417;-70
2022/01/16 12:56:48;;;;;;;26.00;15.32;;;7.00;93.80;;;;;;4992222;28;20038;-70
2022/01/16 12:59:20;;;;;;;18.35;9.77;;;7.10;92.20;;;;;;4991817;28;20134;-70
2022/01/16 13:01:49;;;;;;;18.83;10.35;;;7.10;91.40;;;;;;4992001;28;20031;-70
2022/01/16 13:04:28;;;;;;;22.98;12.75;;;7.10;93.50;;;;;;4991888;28;20527;-71
2022/01/16 13:06:57;;;;;;;23.15;13.70;;;7.10;90.90;;;;;;4974803;28;20026;-71
2022/01/16 13:09:23;;;;;;;38.20;23.95;;;7.10;91.00;;;;;;4974542;28;20023;-70
2022/01/16 13:11:56;;;;;;;42.08;20.77;;;7.10;90.20;;;;;;4992091;28;20025;-71